Time;durP1;ratioP1;P1;durP2;ratioP2;P2;SDS_P1;SDS_P2;PMS_P1;PMS_P2;Temp;Humidity;BMP_temperature;BMP_pressure;BME280_temperature;BME280_humidity;BME280_pressure;Samples;Min_cycle;Max_cycle;Signal;HPM_P1;HPM_P2
2021/04/02 00:00:58;;;;;;;15.08;12.25;;;;;;;12.13;67.55;98150.08;1742800;80;21141;-55
2021/04/02 00:03:29;;;;;;;14.18;11.05;;;;;;;12.06;67.79;98153.81;1768516;79;21376;-55
2021/04/02 00:05:57;;;;;;;12.70;11.33;;;;;;;12.00;67.96;98153.31;1759380;79;21609;-55
2021/04/02 00:08:25;;;;;;;14.13;12.05;;;;;;;11.97;68.10;98147.06;1743964;82;21148;-56
2021/04/02 00:10:57;;;;;;;13.13;11.83;;;;;;;11.93;68.25;98145.86;1782755;79;21120;-55
2021/04/02 00:13:29;;;;;;;13.68;12.23;;;;;;;11.92;68.42;98145.03;1799091;77;21146;-55
2021/04/02 00:15:57;;;;;;;15.65;11.53;;;;;;;11.90;68.80;98143.61;1800050;79;21191;-54
2021/04/02 00:18:26;;;;;;;13.43;10.75;;;;;;;11.90;68.98;98152.43;1782687;79;21179;-55
2021/04/02 00:20:59;;;;;;;13.08;11.70;;;;;;;11.85;69.15;98154.09;1782797;79;21045;-54
2021/04/02 00:23:27;;;;;;;17.90;12.82;;;;;;;11.84;69.40;98167.91;1786400;79;21136;-55
2021/04/02 00:25:54;;;;;;;17.20;14.50;;;;;;;11.80;69.51;98171.22;1792235;77;21059;-55
2021/04/02 00:28:23;;;;;;;16.37;13.90;;;;;;;11.71;69.93;98167.95;1772032;79;21238;-54
2021/04/02 00:30:56;;;;;;;19.50;15.25;;;;;;;11.66;70.22;98170.39;1772224;79;21205;-55
2021/04/02 00:33:27;;;;;;;16.80;14.43;;;;;;;11.62;70.56;98169.19;1796389;79;21466;-55
2021/04/02 00:35:54;;;;;;;17.23;13.95;;;;;;;11.55;70.94;98167.85;1786586;79;21064;-58
2021/04/02 00:38:22;;;;;;;12.55;11.33;;;;;;;11.50;71.43;98175.65;1775326;79;21110;-56
2021/04/02 00:40:54;;;;;;;11.68;10.45;;;;;;;11.47;71.86;98189.91;1782782;79;21313;-57
2021/04/02 00:43:28;;;;;;;14.25;11.30;;;;;;;11.43;72.35;98199.32;1772326;79;21552;-56
2021/04/02 00:45:55;;;;;;;16.02;11.80;;;;;;;11.38;72.71;98211.93;1785318;79;21069;-55
2021/04/02 00:48:23;;;;;;;17.00;15.03;;;;;;;11.30;73.16;98222.78;1774148;79;21113;-55
2021/04/02 00:50:57;;;;;;;17.75;14.60;;;;;;;11.23;73.50;98219.31;1777872;79;20945;-55
2021/04/02 00:53:28;;;;;;;15.85;12.95;;;;;;;11.17;73.91;98224.11;1772731;79;21349;-55
2021/04/02 00:55:57;;;;;;;15.70;12.07;;;;;;;11.14;74.62;98228.50;1774151;79;21076;-57
2021/04/02 00:58:26;;;;;;;15.70;10.85;;;;;;;11.08;75.19;98225.31;1776820;79;21097;-56
2021/04/02 01:00:54;;;;;;;13.78;10.95;;;;;;;11.05;75.70;98222.55;1793597;79;20987;-54
2021/04/02 01:03:22;;;;;;;11.60;10.40;;;;;;;10.99;76.26;98224.72;1797407;79;21140;-55
2021/04/02 01:05:53;;;;;;;11.48;10.15;;;;;;;10.94;76.58;98222.35;1778024;79;20950;-57
2021/04/02 01:08:29;;;;;;;;;;;;;;;10.91;76.93;98228.90;1673405;81;21022;-55
2021/04/02 01:11:03;;;;;;;12.35;9.35;;;;;;;10.87;77.02;98222.86;1729224;81;20154;-55
2021/04/02 01:13:43;;;;;;;12.15;8.78;;;;;;;10.82;76.68;98220.78;1726284;81;21000;-57
2021/04/02 01:16:26;;;;;;;10.10;9.10;;;;;;;10.79;76.39;98221.72;1724430;81;21491;-55
2021/04/02 01:19:19;;;;;;;10.55;7.75;;;;;;;10.74;76.22;98214.31;1729327;81;21334;-58
2021/04/02 01:22:14;;;;;;;9.00;8.08;;;;;;;10.74;76.26;98208.20;1723762;82;21135;-57
2021/04/02 01:25:13;;;;;;;9.18;8.28;;;;;;;10.65;76.44;98230.17;1723649;81;20985;-55
2021/04/02 01:28:14;;;;;;;8.95;7.90;;;;;;;10.58;76.88;98226.68;1733744;81;21133;-54
2021/04/02 01:30:42;;;;;;;11.95;9.20;;;;;;;10.55;77.20;98239.04;1723666;81;20941;-56
2021/04/02 01:33:11;;;;;;;9.33;7.85;;;;;;;10.55;77.51;98241.70;1726838;81;21263;-55
2021/04/02 01:35:40;;;;;;;12.23;10.30;;;;;;;10.53;77.61;98251.19;1729682;81;21245;-58
2021/04/02 01:38:14;;;;;;;15.38;12.15;;;;;;;10.49;77.76;98259.77;1693616;83;21026;-54
2021/04/02 01:40:46;;;;;;;11.85;10.50;;;;;;;10.43;78.01;98262.71;1723560;82;21083;-55
2021/04/02 01:43:19;;;;;;;13.53;9.85;;;;;;;10.40;78.16;98267.09;1732599;81;21491;-55
2021/04/02 01:45:48;;;;;;;10.63;9.53;;;;;;;10.38;78.38;98260.33;1683771;84;21353;-54
2021/04/02 01:48:17;;;;;;;10.23;9.20;;;;;;;10.40;78.45;98266.30;1703292;82;21649;-55
2021/04/02 01:50:47;;;;;;;11.97;9.43;;;;;;;10.37;78.63;98266.18;1723593;81;20997;-55
2021/04/02 01:53:17;;;;;;;12.82;9.40;;;;;;;10.30;78.80;98265.31;1723669;81;20945;-55
2021/04/02 01:55:44;;;;;;;16.05;14.10;;;;;;;10.27;79.04;98271.02;1704106;83;21523;-55
2021/04/02 01:58:13;;;;;;;15.30;13.60;;;;;;;10.24;79.47;98279.91;1724509;81;21318;-55
2021/04/02 02:00:50;;;;;;;13.65;11.78;;;;;;;10.19;79.71;98277.85;1711992;82;21139;-56
2021/04/02 02:03:20;;;;;;;11.93;10.00;;;;;;;10.11;80.26;98280.64;1732428;81;21106;-55
2021/04/02 02:05:47;;;;;;;13.78;9.58;;;;;;;10.04;80.74;98273.11;1693603;84;21147;-55
2021/04/02 02:08:18;;;;;;;12.30;9.20;;;;;;;9.98;81.13;98278.41;1701794;84;21181;-56
2021/04/02 02:10:49;;;;;;;9.85;8.88;;;;;;;9.91;81.53;98271.70;1657435;84;21360;-58
2021/04/02 02:13:18;;;;;;;10.05;9.05;;;;;;;9.85;81.63;98267.98;1642454;87;21252;-59
2021/04/02 02:15:47;;;;;;;9.38;7.78;;;;;;;9.83;81.80;98268.70;1685695;84;21640;-55
2021/04/02 02:18:17;;;;;;;8.75;7.95;;;;;;;9.83;81.94;98266.54;1704354;82;21141;-58
2021/04/02 02:20:47;;;;;;;9.25;7.65;;;;;;;9.77;82.21;98264.19;1706877;82;21178;-58
2021/04/02 02:23:16;;;;;;;7.75;6.95;;;;;;;9.71;82.43;98268.93;1643948;87;21483;-59
2021/04/02 02:25:45;;;;;;;9.85;7.30;;;;;;;9.71;82.66;98264.13;1703604;84;21138;-55
2021/04/02 02:28:14;;;;;;;8.48;7.53;;;;;;;9.66;82.92;98262.05;1679124;84;21026;-58
2021/04/02 02:30:42;;;;;;;9.43;7.58;;;;;;;9.66;83.12;98267.87;1644172;87;20992;-55
2021/04/02 02:33:15;;;;;;;8.88;7.97;;;;;;;9.63;83.43;98270.41;1703673;84;21137;-58
2021/04/02 02:35:44;;;;;;;10.35;8.60;;;;;;;9.62;83.59;98272.73;1705083;84;21231;-55
2021/04/02 02:38:12;;;;;;;8.65;7.50;;;;;;;9.61;83.79;98264.97;1706846;84;20959;-55
2021/04/02 02:40:40;;;;;;;8.33;7.53;;;;;;;9.55;84.13;98269.72;1706870;84;21112;-60
2021/04/02 02:43:09;;;;;;;9.38;8.03;;;;;;;9.48;84.27;98271.01;1706927;84;21038;-56
2021/04/02 02:45:37;;;;;;;9.05;7.83;;;;;;;9.43;84.63;98264.63;1706681;84;21057;-55
2021/04/02 02:48:08;;;;;;;7.92;7.12;;;;;;;9.40;84.95;98259.20;1706880;84;21229;-55
2021/04/02 02:50:39;;;;;;;10.35;8.10;;;;;;;9.37;85.45;98253.44;1706901;84;21573;-57
2021/04/02 02:53:09;;;;;;;9.18;8.28;;;;;;;9.30;85.93;98268.00;1706931;84;21022;-58
2021/04/02 02:55:40;;;;;;;11.10;8.75;;;;;;;9.24;86.37;98264.77;1706716;84;21118;-56
2021/04/02 02:58:10;;;;;;;8.30;7.50;;;;;;;9.24;86.49;98268.75;1657148;84;21116;-56
2021/04/02 03:00:40;;;;;;;10.68;8.30;;;;;;;9.21;86.86;98271.28;1706845;84;21390;-57
2021/04/02 03:03:15;;;;;;;9.40;7.70;;;;;;;9.15;87.07;98268.59;1644021;87;21095;-56
2021/04/02 03:05:51;;;;;;;8.88;8.08;;;;;;;9.11;87.71;98265.98;1704331;84;21545;-57
2021/04/02 03:08:22;;;;;;;8.78;7.33;;;;;;;9.04;88.07;98263.28;1706809;84;21200;-57
2021/04/02 03:10:51;;;;;;;8.70;7.40;;;;;;;9.00;88.57;98265.15;1706920;84;21108;-55
2021/04/02 03:13:20;;;;;;;8.68;7.12;;;;;;;8.96;88.91;98263.41;1626249;87;21562;-57
2021/04/02 03:15:48;;;;;;;9.45;8.45;;;;;;;8.92;89.44;98258.14;1687127;82;21162;-56
2021/04/02 03:18:19;;;;;;;10.03;7.72;;;;;;;8.88;89.83;98262.20;1641446;86;21044;-55
2021/04/02 03:20:49;;;;;;;9.03;7.37;;;;;;;8.85;90.07;98267.05;1666727;84;21155;-57
2021/04/02 03:23:18;;;;;;;7.83;6.92;;;;;;;8.81;90.18;98268.44;1694334;84;21134;-55
2021/04/02 03:25:47;;;;;;;8.28;6.67;;;;;;;8.76;90.53;98266.86;1666413;84;21371;-58
2021/04/02 03:28:18;;;;;;;6.75;6.15;;;;;;;8.74;90.80;98267.53;1666554;84;21115;-54
2021/04/02 03:30:49;;;;;;;7.37;6.58;;;;;;;8.72;90.94;98262.93;1694273;84;21561;-57
2021/04/02 03:33:27;;;;;;;6.80;6.17;;;;;;;8.71;91.14;98262.63;1694286;84;21141;-55
2021/04/02 03:36:15;;;;;;;6.70;5.67;;;;;;;8.71;91.21;98266.61;1694465;84;21121;-55
2021/04/02 03:38:45;;;;;;;6.12;5.10;;;;;;;8.65;91.23;98265.02;1694264;84;21338;-58
2021/04/02 03:41:18;;;;;;;5.08;4.65;;;;;;;8.59;90.67;98269.73;1694235;84;21003;-56
2021/04/02 03:43:47;;;;;;;4.97;3.77;;;;;;;8.47;90.00;98270.41;1693824;84;21140;-55
2021/04/02 03:46:15;;;;;;;6.80;3.35;;;;;;;8.32;89.54;98265.12;1694439;84;21628;-58
2021/04/02 03:48:44;;;;;;;3.98;3.05;;;;;;;8.19;89.10;98274.69;1667196;84;21176;-55
2021/04/02 03:51:17;;;;;;;3.08;2.87;;;;;;;8.05;89.11;98285.63;1694321;84;21161;-57
2021/04/02 03:53:53;;;;;;;4.12;2.67;;;;;;;7.92;89.34;98286.27;1685581;84;21106;-56
2021/04/02 03:56:26;;;;;;;3.40;2.37;;;;;;;7.78;89.60;98283.59;1694458;84;21098;-59
2021/04/02 03:58:55;;;;;;;2.50;2.20;;;;;;;7.66;90.00;98288.53;1676348;84;21118;-56
2021/04/02 04:01:28;;;;;;;2.62;2.42;;;;;;;7.55;90.35;98295.58;1694442;84;21086;-58
2021/04/02 04:03:59;;;;;;;2.80;2.50;;;;;;;7.43;90.99;98289.88;1694509;84;21273;-56
2021/04/02 04:06:29;;;;;;;2.47;2.27;;;;;;;7.33;91.65;98295.92;1694251;84;21057;-56
2021/04/02 04:09:01;;;;;;;2.50;2.08;;;;;;;7.23;91.80;98303.28;1688842;83;21225;-55
2021/04/02 04:11:30;;;;;;;3.17;2.00;;;;;;;7.15;92.03;98303.34;1722351;83;21218;-56
2021/04/02 04:13:58;;;;;;;2.70;2.00;;;;;;;7.09;92.31;98312.50;1722375;83;21035;-59
2021/04/02 04:16:28;;;;;;;2.05;1.72;;;;;;;6.98;91.77;98319.02;1673023;83;21390;-55
2021/04/02 04:18:59;;;;;;;1.62;1.27;;;;;;;6.89;91.71;98328.47;1719820;82;21137;-56
2021/04/02 04:21:39;;;;;;;1.50;1.40;;;;;;;6.80;91.83;98325.08;1722193;82;21646;-55
2021/04/02 04:24:15;;;;;;;2.15;1.47;;;;;;;6.71;91.98;98330.07;1722227;81;21217;-56
2021/04/02 04:26:44;;;;;;;2.42;1.72;;;;;;;6.59;91.76;98332.79;1722201;83;21112;-55
2021/04/02 04:29:18;;;;;;;1.62;1.32;;;;;;;6.48;91.89;98334.48;1722245;82;21377;-56
2021/04/02 04:31:45;;;;;;;2.70;1.45;;;;;;;6.38;92.22;98336.02;1722304;81;20944;-54
2021/04/02 04:34:13;;;;;;;2.33;1.60;;;;;;;6.30;92.62;98345.78;1735032;82;21158;-57
2021/04/02 04:36:43;;;;;;;2.08;1.50;;;;;;;6.22;92.70;98344.00;1732010;82;21062;-55
2021/04/02 04:39:12;;;;;;;1.27;1.10;;;;;;;6.12;92.94;98349.48;1732632;81;21109;-56
2021/04/02 04:41:40;;;;;;;2.42;1.57;;;;;;;6.04;93.43;98358.73;1732181;82;21195;-54
2021/04/02 04:44:07;;;;;;;2.00;1.60;;;;;;;6.03;93.79;98365.49;1732110;82;21229;-57
2021/04/02 04:46:35;;;;;;;2.10;1.50;;;;;;;6.00;93.94;98365.33;1732010;81;21118;-59
2021/04/02 04:49:03;;;;;;;1.85;1.70;;;;;;;5.97;93.99;98360.91;1705409;82;21184;-53
2021/04/02 04:51:32;;;;;;;3.50;2.75;;;;;;;5.95;94.12;98377.38;1643279;86;21147;-54
2021/04/02 04:54:00;;;;;;;4.15;2.80;;;;;;;5.93;93.93;98381.52;1706088;82;21208;-54
2021/04/02 04:56:29;;;;;;;3.58;2.65;;;;;;;5.93;93.69;98377.56;1732432;81;21178;-57
2021/04/02 04:59:01;;;;;;;5.17;2.98;;;;;;;5.92;93.42;98380.35;1732191;82;21153;-54
2021/04/02 05:01:36;;;;;;;2.77;2.08;;;;;;;5.92;92.92;98389.10;1732220;82;21125;-54
2021/04/02 05:04:05;;;;;;;3.00;2.70;;;;;;;5.90;92.47;98392.90;1731724;81;21177;-60
2021/04/02 05:06:32;;;;;;;2.80;2.47;;;;;;;5.87;92.08;98394.06;1699847;83;21457;-56
2021/04/02 05:09:01;;;;;;;2.83;2.60;;;;;;;5.85;91.53;98380.70;1708419;82;21122;-55
2021/04/02 05:11:28;;;;;;;3.83;2.42;;;;;;;5.81;91.19;98388.61;1732103;82;21093;-55
2021/04/02 05:13:57;;;;;;;2.47;2.27;;;;;;;5.76;90.80;98391.72;1732102;82;21185;-55
2021/04/02 05:16:24;;;;;;;2.60;2.40;;;;;;;5.69;90.67;98395.19;1732109;82;21177;-55
2021/04/02 05:18:52;;;;;;;2.45;2.25;;;;;;;5.60;90.69;98395.71;1732029;82;23466;-58
2021/04/02 05:21:19;;;;;;;3.10;2.00;;;;;;;5.54;90.80;98401.14;1732093;81;21150;-56
2021/04/02 05:23:47;;;;;;;2.37;2.17;;;;;;;5.51;90.79;98404.11;1732209;82;21046;-56
2021/04/02 05:26:15;;;;;;;1.80;1.70;;;;;;;5.48;90.82;98408.39;1732054;82;21050;-56
2021/04/02 05:28:44;;;;;;;1.27;1.27;;;;;;;5.45;90.54;98407.87;1732481;81;20947;-57
2021/04/02 05:31:12;;;;;;;1.47;1.37;;;;;;;5.45;90.04;98414.47;1731616;82;21155;-57
2021/04/02 05:33:40;;;;;;;1.50;1.40;;;;;;;5.45;89.71;98411.84;1730687;82;21611;-56
2021/04/02 05:36:08;;;;;;;2.67;1.17;;;;;;;5.42;88.62;98412.19;1731838;82;20979;-56
2021/04/02 05:38:36;;;;;;;1.22;1.12;;;;;;;5.38;88.07;98412.16;1732033;82;21042;-55
2021/04/02 05:41:08;;;;;;;1.12;1.05;;;;;;;5.32;87.59;98412.84;1732083;82;21131;-55
2021/04/02 05:43:57;;;;;;;1.27;0.80;;;;;;;5.24;87.35;98414.14;1732027;81;21320;-57
2021/04/02 05:46:25;;;;;;;1.37;1.25;;;;;;;5.18;86.95;98414.29;1731926;82;21134;-56
2021/04/02 05:49:04;;;;;;;0.65;0.62;;;;;;;5.13;86.60;98416.59;1732013;81;21548;-56
2021/04/02 05:51:32;;;;;;;0.40;0.40;;;;;;;5.07;86.00;98423.81;1731870;82;21150;-58
2021/04/02 05:54:00;;;;;;;3.02;0.70;;;;;;;5.04;85.83;98429.89;1731963;82;21137;-57
2021/04/02 05:56:28;;;;;;;0.70;0.70;;;;;;;4.98;85.49;98436.63;1713163;82;21408;-57
2021/04/02 05:58:55;;;;;;;0.50;0.50;;;;;;;4.95;85.17;98441.73;1722109;82;21629;-57
2021/04/02 06:01:22;;;;;;;1.82;0.80;;;;;;;4.93;84.95;98444.19;1727527;82;21181;-57
2021/04/02 06:03:51;;;;;;;0.95;0.47;;;;;;;4.90;84.78;98452.44;1731964;82;21125;-57
2021/04/02 06:06:18;;;;;;;0.50;0.40;;;;;;;4.88;84.55;98448.63;1731984;82;21158;-58
2021/04/02 06:08:46;;;;;;;1.25;0.50;;;;;;;4.84;84.68;98460.48;1730091;81;21398;-58
2021/04/02 06:11:14;;;;;;;1.30;0.95;;;;;;;4.84;84.83;98463.13;1725967;81;20954;-58
2021/04/02 06:13:42;;;;;;;0.60;0.40;;;;;;;4.79;84.46;98461.45;1727476;82;21003;-56
2021/04/02 06:16:10;;;;;;;0.60;0.60;;;;;;;4.77;84.67;98472.62;1725459;81;21048;-58
2021/04/02 06:18:39;;;;;;;0.70;0.70;;;;;;;4.81;84.60;98476.61;1727194;81;21596;-56
2021/04/02 06:21:07;;;;;;;0.70;0.70;;;;;;;4.85;84.50;98476.61;1718266;81;21542;-55
2021/04/02 06:23:36;;;;;;;0.47;0.40;;;;;;;4.85;84.43;98479.25;1730118;81;21185;-56
2021/04/02 06:26:10;;;;;;;2.35;0.60;;;;;;;4.85;84.41;98483.20;1725506;81;21094;-56
2021/04/02 06:28:39;;;;;;;0.35;0.35;;;;;;;4.84;84.35;98482.05;1722797;81;21698;-59
2021/04/02 06:31:16;;;;;;;0.72;0.70;;;;;;;4.80;84.66;98477.58;1724255;81;21175;-55
2021/04/02 06:33:52;;;;;;;0.70;0.60;;;;;;;4.78;85.14;98482.19;1729853;81;21357;-58
2021/04/02 06:36:25;;;;;;;0.90;0.50;;;;;;;4.78;85.27;98482.19;1726235;81;20971;-58
2021/04/02 06:38:59;;;;;;;0.62;0.62;;;;;;;4.78;85.40;98489.27;1734416;82;21485;-58
2021/04/02 06:41:28;;;;;;;0.95;0.62;;;;;;;4.79;85.72;98494.88;1732429;81;21262;-59
2021/04/02 06:44:04;;;;;;;0.40;0.40;;;;;;;4.78;86.26;98490.58;1722317;82;21210;-56
2021/04/02 06:46:38;;;;;;;1.05;0.68;;;;;;;4.80;86.17;98497.34;1711503;81;22371;-56
2021/04/02 06:49:15;;;;;;;1.95;1.47;;;;;;;4.83;86.16;98498.35;1713530;82;21157;-56
2021/04/02 06:51:49;;;;;;;1.72;1.37;;;;;;;4.85;85.83;98503.45;1720810;81;21512;-56
2021/04/02 06:54:21;;;;;;;0.75;0.75;;;;;;;4.84;85.86;98494.75;1719936;82;21208;-56
2021/04/02 06:57:03;;;;;;;0.50;0.50;;;;;;;4.83;85.72;98501.47;1712999;82;21044;-57
2021/04/02 06:59:32;;;;;;;0.68;0.68;;;;;;;4.75;85.72;98499.63;1711733;81;21194;-58
2021/04/02 07:02:03;;;;;;;0.65;0.55;;;;;;;4.71;85.55;98496.98;1722573;82;21690;-56
2021/04/02 07:04:34;;;;;;;0.55;0.55;;;;;;;4.68;85.39;98498.61;1734373;81;21227;-57
2021/04/02 07:07:05;;;;;;;0.72;0.72;;;;;;;4.66;85.49;98510.30;1732536;82;21137;-57
2021/04/02 07:09:37;;;;;;;1.20;0.68;;;;;;;4.65;85.05;98507.31;1730185;81;21563;-59
2021/04/02 07:12:06;;;;;;;1.50;1.40;;;;;;;4.63;84.87;98514.06;1682718;84;21366;-56
2021/04/02 07:14:34;;;;;;;2.33;2.05;;;;;;;4.61;84.39;98517.35;1727087;82;21088;-57
2021/04/02 07:17:02;;;;;;;1.50;1.40;;;;;;;4.59;84.26;98518.49;1735269;81;21132;-58
2021/04/02 07:19:30;;;;;;;1.32;1.20;;;;;;;4.58;83.73;98521.61;1734550;81;21197;-57
2021/04/02 07:21:57;;;;;;;1.37;0.98;;;;;;;4.56;83.52;98523.58;1731334;82;21193;-60
2021/04/02 07:24:27;;;;;;;1.37;0.62;;;;;;;4.57;83.45;98519.95;1676066;82;21309;-57
2021/04/02 07:26:54;;;;;;;0.82;0.70;;;;;;;4.57;83.29;98528.33;1721724;81;21217;-57
2021/04/02 07:29:22;;;;;;;0.90;0.70;;;;;;;4.56;83.13;98522.75;1727989;81;21187;-57
2021/04/02 07:31:50;;;;;;;0.60;0.60;;;;;;;4.52;82.93;98522.22;1730790;82;21169;-59
2021/04/02 07:34:17;;;;;;;1.10;0.80;;;;;;;4.50;82.84;98521.55;1745655;81;21590;-57
2021/04/02 07:36:48;;;;;;;0.90;0.75;;;;;;;4.53;82.42;98515.98;1711504;82;21354;-56
2021/04/02 07:39:20;;;;;;;0.90;0.70;;;;;;;4.50;81.89;98522.87;1697314;82;21145;-56
2021/04/02 07:41:52;;;;;;;0.70;0.70;;;;;;;4.48;81.48;98520.89;1735947;82;21193;-55
2021/04/02 07:44:19;;;;;;;1.98;1.30;;;;;;;4.48;81.41;98529.28;1735926;82;21158;-56
2021/04/02 07:47:08;;;;;;;1.30;1.00;;;;;;;4.48;81.16;98532.74;1735910;81;21078;-55
2021/04/02 07:49:53;;;;;;;1.37;0.80;;;;;;;4.52;80.82;98539.34;1733512;81;22751;-57
2021/04/02 07:52:37;;;;;;;0.60;0.53;;;;;;;4.54;80.31;98549.22;1730160;82;21185;-56
2021/04/02 07:55:16;;;;;;;0.50;0.50;;;;;;;4.52;79.79;98559.09;1731326;82;21076;-56
2021/04/02 07:57:58;;;;;;;0.72;0.72;;;;;;;4.52;79.99;98552.99;1724097;81;21074;-56
2021/04/02 08:00:29;;;;;;;0.93;0.40;;;;;;;4.53;79.19;98562.08;1714048;82;22146;-55
2021/04/02 08:03:12;;;;;;;4.30;0.85;;;;;;;4.56;78.89;98566.21;1741952;81;21368;-56
2021/04/02 08:06:00;;;;;;;1.10;1.00;;;;;;;4.61;77.91;98566.09;1733426;81;21015;-55
2021/04/02 08:08:46;;;;;;;1.45;1.20;;;;;;;4.65;77.47;98575.80;1735034;81;21120;-56
2021/04/02 08:11:32;;;;;;;3.47;1.55;;;;;;;4.70;77.31;98577.48;1723558;83;21015;-60
2021/04/02 08:14:11;;;;;;;2.72;1.00;;;;;;;4.75;76.94;98579.99;1734293;82;21612;-59
2021/04/02 08:16:50;;;;;;;2.10;0.88;;;;;;;4.82;76.71;98582.33;1715504;82;21278;-63
2021/04/02 08:19:27;;;;;;;0.98;0.82;;;;;;;4.88;76.24;98576.94;1733925;81;21039;-58
2021/04/02 08:22:06;;;;;;;1.90;0.70;;;;;;;4.94;75.69;98582.42;1734068;82;21138;-57
2021/04/02 08:24:36;;;;;;;1.20;0.80;;;;;;;4.96;75.58;98583.09;1734102;81;21154;-59
2021/04/02 08:27:05;;;;;;;1.20;1.00;;;;;;;5.01;75.65;98583.92;1734216;82;21122;-58
2021/04/02 08:29:35;;;;;;;1.47;0.90;;;;;;;5.07;75.40;98584.63;1734161;82;21374;-57
2021/04/02 08:32:09;;;;;;;0.60;0.60;;;;;;;5.15;75.44;98581.20;1734242;82;21182;-58
2021/04/02 08:34:37;;;;;;;0.70;0.70;;;;;;;5.23;74.75;98575.48;1733747;82;21608;-60
2021/04/02 08:37:14;;;;;;;1.37;0.72;;;;;;;5.29;74.52;98574.03;1734315;81;21616;-58
2021/04/02 08:40:00;;;;;;;1.57;1.00;;;;;;;5.36;74.23;98577.19;1705450;82;21161;-58
2021/04/02 08:42:29;;;;;;;1.95;1.20;;;;;;;5.45;73.99;98578.02;1671931;84;21397;-58
2021/04/02 08:44:57;;;;;;;1.20;0.93;;;;;;;5.51;73.61;98562.88;1706082;82;21195;-57
2021/04/02 08:47:24;;;;;;;2.70;0.80;;;;;;;5.56;73.01;98571.14;1672123;84;20949;-59
2021/04/02 08:49:54;;;;;;;1.30;1.20;;;;;;;5.63;72.98;98563.42;1705947;82;21104;-56
2021/04/02 08:52:24;;;;;;;1.60;0.82;;;;;;;5.76;73.15;98552.70;1671144;84;21089;-57
2021/04/02 08:54:56;;;;;;;1.57;1.02;;;;;;;5.88;72.74;98554.09;1705289;82;21456;-57
2021/04/02 08:57:26;;;;;;;1.32;0.80;;;;;;;6.03;72.69;98543.22;1670706;84;21121;-57
2021/04/02 08:59:54;;;;;;;2.98;0.80;;;;;;;6.18;71.83;98538.09;1705021;82;21077;-60
2021/04/02 09:02:22;;;;;;;0.93;0.90;;;;;;;6.39;71.25;98540.27;1651709;84;21162;-58
2021/04/02 09:04:50;;;;;;;1.05;0.85;;;;;;;6.68;70.65;98539.20;1662476;84;21581;-59
2021/04/02 09:07:18;;;;;;;0.65;0.50;;;;;;;6.98;69.44;98523.12;1670933;84;21309;-57
2021/04/02 09:09:47;;;;;;;1.40;0.70;;;;;;;7.28;68.17;98528.94;1704889;82;21214;-60
2021/04/02 09:12:17;;;;;;;1.75;1.10;;;;;;;7.49;66.56;98531.81;1653237;84;21177;-58
2021/04/02 09:14:51;;;;;;;0.93;0.78;;;;;;;7.56;65.65;98527.46;1694172;84;21099;-58
2021/04/02 09:17:25;;;;;;;1.98;0.75;;;;;;;7.56;65.07;98533.28;1704991;82;21577;-58
2021/04/02 09:19:53;;;;;;;1.27;1.15;;;;;;;7.58;64.97;98535.25;1670961;84;21467;-58
2021/04/02 09:22:22;;;;;;;2.05;0.90;;;;;;;7.64;65.18;98543.83;1704860;82;21218;-58
2021/04/02 09:24:49;;;;;;;1.02;0.90;;;;;;;7.70;65.06;98540.46;1670919;84;21135;-59
2021/04/02 09:27:20;;;;;;;1.25;1.00;;;;;;;7.81;65.16;98542.23;1704904;82;21167;-58
2021/04/02 09:29:56;;;;;;;1.50;1.20;;;;;;;7.96;64.33;98536.48;1670944;84;21127;-59
2021/04/02 09:32:28;;;;;;;0.82;0.82;;;;;;;8.07;64.13;98544.03;1704951;82;21198;-57
2021/04/02 09:35:06;;;;;;;1.77;1.10;;;;;;;8.13;63.24;98539.86;1670883;84;21150;-58
2021/04/02 09:37:34;;;;;;;2.58;1.85;;;;;;;8.18;62.77;98540.64;1685137;84;21592;-59
2021/04/02 09:40:06;;;;;;;1.47;1.15;;;;;;;8.30;62.29;98540.07;1650523;84;21198;-58
2021/04/02 09:42:35;;;;;;;1.12;1.02;;;;;;;8.41;60.91;98542.80;1698672;82;21606;-58
2021/04/02 09:45:09;;;;;;;1.05;0.80;;;;;;;8.48;60.62;98539.25;1698541;82;21369;-58
2021/04/02 09:47:46;;;;;;;3.90;0.70;;;;;;;8.58;60.35;98544.28;1697823;82;21205;-58
2021/04/02 09:50:16;;;;;;;0.95;0.80;;;;;;;8.63;60.04;98544.06;1701633;82;21172;-57
2021/04/02 09:52:45;;;;;;;1.32;1.00;;;;;;;8.72;59.73;98545.31;1703270;82;20949;-59
2021/04/02 09:55:14;;;;;;;1.65;0.80;;;;;;;8.76;58.80;98555.91;1709422;82;21475;-56
2021/04/02 09:57:41;;;;;;;0.85;0.80;;;;;;;8.79;58.90;98561.64;1702903;82;22225;-57
2021/04/02 10:00:12;;;;;;;2.00;1.10;;;;;;;8.81;58.90;98564.14;1698427;82;21179;-56
2021/04/02 10:02:40;;;;;;;2.70;0.80;;;;;;;8.84;58.63;98559.80;1698493;82;21549;-58
2021/04/02 10:05:09;;;;;;;1.50;1.12;;;;;;;8.82;58.36;98558.64;1738490;81;21191;-55
2021/04/02 10:07:37;;;;;;;1.00;0.75;;;;;;;8.82;58.40;98563.95;1698697;82;21235;-56
2021/04/02 10:10:07;;;;;;;2.02;0.90;;;;;;;8.87;58.32;98566.05;1698562;82;21356;-58
2021/04/02 10:12:34;;;;;;;0.62;0.62;;;;;;;8.95;57.80;98569.94;1698450;82;21191;-57
2021/04/02 10:15:04;;;;;;;1.80;1.27;;;;;;;8.97;57.50;98564.77;1698532;82;21195;-56
2021/04/02 10:17:32;;;;;;;1.87;1.40;;;;;;;8.97;57.32;98562.65;1715828;82;21019;-57
2021/04/02 10:20:01;;;;;;;2.42;1.17;;;;;;;8.95;57.44;98560.66;1697720;82;21001;-56
2021/04/02 10:22:29;;;;;;;5.87;1.10;;;;;;;8.95;57.69;98567.29;1690316;82;21995;-59
2021/04/02 10:24:56;;;;;;;1.98;1.15;;;;;;;8.98;57.61;98558.48;1714282;82;21143;-56
2021/04/02 10:27:25;;;;;;;3.33;1.20;;;;;;;9.00;57.62;98567.06;1698567;82;21131;-57
2021/04/02 10:29:53;;;;;;;2.33;0.80;;;;;;;9.07;57.35;98563.20;1700479;82;21083;-56
2021/04/02 10:32:20;;;;;;;3.10;0.70;;;;;;;9.15;56.30;98568.42;1761393;80;21125;-56
2021/04/02 10:34:48;;;;;;;2.08;0.60;;;;;;;9.27;56.04;98561.63;1749194;80;21357;-57
2021/04/02 10:37:16;;;;;;;2.83;0.80;;;;;;;9.42;55.23;98550.98;1698938;82;21194;-55
2021/04/02 10:39:44;;;;;;;0.98;0.60;;;;;;;9.61;54.83;98560.55;1693879;82;21018;-57
2021/04/02 10:42:12;;;;;;;0.70;0.70;;;;;;;9.90;53.41;98553.01;1690811;83;20958;-57
2021/04/02 10:44:40;;;;;;;1.98;1.00;;;;;;;10.22;53.12;98554.39;1691637;83;21168;-58
2021/04/02 10:47:09;;;;;;;3.42;0.82;;;;;;;10.53;51.87;98549.02;1683098;83;21377;-57
2021/04/02 10:49:36;;;;;;;3.35;0.80;;;;;;;10.84;51.10;98543.34;1688621;83;21053;-58
2021/04/02 10:52:06;;;;;;;1.62;1.10;;;;;;;11.09;49.98;98549.02;1695552;83;21387;-56
2021/04/02 10:54:35;;;;;;;2.67;1.00;;;;;;;11.24;49.42;98551.58;1701431;83;21009;-58
2021/04/02 10:57:05;;;;;;;2.37;0.80;;;;;;;11.40;49.25;98552.56;1699875;83;21651;-58
2021/04/02 10:59:32;;;;;;;0.90;0.50;;;;;;;11.54;48.87;98547.11;1689886;83;21523;-56
2021/04/02 11:02:00;;;;;;;1.02;0.70;;;;;;;11.67;47.90;98551.16;1736307;81;21081;-56
2021/04/02 11:04:28;;;;;;;1.27;0.80;;;;;;;11.73;46.75;98542.91;1738969;81;21122;-56
2021/04/02 11:06:56;;;;;;;3.80;1.17;;;;;;;11.78;46.44;98532.48;1737705;81;21159;-57
2021/04/02 11:09:25;;;;;;;1.15;0.70;;;;;;;11.83;44.45;98527.36;1688040;83;21079;-57
2021/04/02 11:11:55;;;;;;;0.68;0.65;;;;;;;11.76;43.85;98529.99;1739737;81;22007;-57
2021/04/02 11:14:23;;;;;;;1.98;0.80;;;;;;;11.68;44.49;98535.97;1759705;81;21055;-56
2021/04/02 11:16:50;;;;;;;1.30;0.78;;;;;;;11.71;44.95;98524.45;1742580;81;21107;-58
2021/04/02 11:19:19;;;;;;;1.65;0.70;;;;;;;11.76;44.78;98529.99;1742758;81;21193;-59
2021/04/02 11:21:47;;;;;;;0.80;0.80;;;;;;;11.81;44.90;98524.05;1752130;81;21196;-56
2021/04/02 11:24:14;;;;;;;2.05;0.93;;;;;;;11.85;44.12;98523.16;1689221;83;21386;-59
2021/04/02 11:26:42;;;;;;;1.27;1.00;;;;;;;11.87;43.91;98523.27;1689660;83;21176;-59
2021/04/02 11:29:09;;;;;;;0.78;0.78;;;;;;;11.89;43.42;98519.08;1693205;83;21136;-58
2021/04/02 11:31:37;;;;;;;0.98;0.80;;;;;;;11.96;42.88;98531.91;1717868;83;21032;-57
2021/04/02 11:34:04;;;;;;;1.12;0.70;;;;;;;12.06;42.82;98530.48;1759860;81;21179;-57
2021/04/02 11:36:32;;;;;;;2.45;1.00;;;;;;;12.25;42.61;98527.55;1686670;84;21301;-58
2021/04/02 11:38:59;;;;;;;1.75;0.60;;;;;;;12.36;43.24;98526.41;1744361;81;21143;-55
2021/04/02 11:41:27;;;;;;;1.17;0.65;;;;;;;12.50;41.82;98526.42;1677617;84;21134;-57
2021/04/02 11:43:54;;;;;;;1.12;0.47;;;;;;;12.51;41.66;98526.23;1679825;84;21175;-56
2021/04/02 11:46:21;;;;;;;1.07;0.70;;;;;;;12.51;41.52;98528.07;1705571;82;21075;-58
2021/04/02 11:48:50;;;;;;;0.93;0.57;;;;;;;12.47;41.11;98522.31;1703372;82;21378;-58
2021/04/02 11:51:18;;;;;;;1.98;0.90;;;;;;;12.44;40.84;98526.72;1704689;82;21179;-60
2021/04/02 11:53:46;;;;;;;1.22;1.00;;;;;;;12.38;40.98;98527.02;1705128;82;21167;-57